Wetter- und Hausseite der Bittkau's aus Magdeburg Ottersleben

Hier werden aktuelle Daten aus einer privaten Wetterstation und

lokale Wettervorhersagen bereitgestellt




Thunder radar more information blitzortung!


Rain radar more information rain snow radar



Es ist keine erhöhte Aufmerksamkeit aufgrund des Wetters notwendig.    Es gibt keine Warnungen.

METAR-Meldungen aus der Umgebung

   
EDDB - Berlin
Aktualisierung: 17.01.2022 8:50
Klar  
Klar  
   Wind: WNW 18.5 km/h
Wind: WNW 18.5 km/h
Temperatur: 2°C
Gefühlt: -2°C
Taupunkt: -2°C
Luftfeuchte: 75%
Luftdruck: 1029 hPa
Sichtbarkeit: More than 10 km
Bewölkung: Klar
EDDB 171950Z 30010KT CAVOK 02/M02 Q1029 NOSIG
EDDP - Leipzig
Aktualisierung: 17.01.2022 8:50
leicht bewölkt  
leicht bewölkt  
   Wind: WNW 14.8 km/h
Wind: WNW 14.8 km/h
Temperatur: 3°C
Gefühlt: -1°C
Taupunkt: 0°C
Luftfeuchte: 81%
Luftdruck: 1031 hPa
Bewölkt: leicht bewölkt
Sichtbarkeit: More than 10 km
Bewölkung: leicht bewölkt 1066.8 m
EDDP 171950Z 30008KT 9999 FEW035 03/00 Q1031 NOSIG
EDDC - Dresden
Aktualisierung: 17.01.2022 8:50
Klar  
Klar  
   Wind: WNW 11.1 km/h
Wind: WNW 11.1 km/h
Temperatur: 1°C
Gefühlt: -2°C
Taupunkt: 0°C
Luftfeuchte: 93%
Luftdruck: 1029 hPa
Sichtbarkeit: More than 10 km
Bewölkung: Klar
EDDC 171950Z 30006KT CAVOK 01/M00 Q1029 NOSIG
EDDE - Erfurt
Aktualisierung: 17.01.2022 8:50
Leichter Niederschlag möglich, Stark bewölkt  
Leichter Niederschlag möglich, Stark bewölkt  
   Wind: NW 22.2 km/h
Wind: NW 22.2 km/h
Temperatur: 3°C
Gefühlt: -2°C
Taupunkt: 1°C
Luftfeuchte: 87%
Luftdruck: 1031 hPa
Bewölkt: Stark bewölkt
Sichtbarkeit: More than 10 km
Bewölkung: Stark bewölkt 548.6 m
EDDE 171950Z 32012KT 9999 -RA BKN018 03/01 Q1031 NOSIG
EDVE - Braunschweig
Aktualisierung: 17.01.2022 8:50
Stark bewölkt  
Stark bewölkt  
   Wind: WNW 11.1 km/h
Wind: WNW 11.1 km/h
Temperatur: 2°C
Gefühlt: -1°C
Taupunkt: -1°C
Luftfeuchte: 81%
Luftdruck: 1032 hPa
Bewölkt: Stark bewölkt
Sichtbarkeit: More than 10 km
Bewölkung: Stark bewölkt 1036.3 m
EDVE 171950Z AUTO 30006KT 9999 // BKN034/// 02/M01 Q1032
EDDV - Hannover
Aktualisierung: 17.01.2022 8:50
Stark bewölkt  
Stark bewölkt  
   Wind: WNW 13 km/h
Wind: WNW 13 km/h
Temperatur: 3°C
Gefühlt: -1°C
Taupunkt: 1°C
Luftfeuchte: 87%
Luftdruck: 1032 hPa
Bewölkt: Stark bewölkt
Sichtbarkeit: More than 10 km
Bewölkung: Stark bewölkt 1158.2 m
EDDV 171950Z 30007KT 9999 BKN038 03/01 Q1032 NOSIG
EDDE - Schwerin
Aktualisierung: 17.01.2022 8:50
Leichter Niederschlag möglich, Stark bewölkt  
Leichter Niederschlag möglich, Stark bewölkt  
   Wind: NW 22.2 km/h
Wind: NW 22.2 km/h
Temperatur: 3°C
Gefühlt: -2°C
Taupunkt: 1°C
Luftfeuchte: 87%
Luftdruck: 1031 hPa
Bewölkt: Stark bewölkt
Sichtbarkeit: More than 10 km
Bewölkung: Stark bewölkt 548.6 m
EDDE 171950Z 32012KT 9999 -RA BKN018 03/01 Q1031 NOSIG
EDHI - Hamburg
Aktualisierung: 17.01.2022 8:50
Teilweise bewölkt  
Teilweise bewölkt  
   Wind: WNW 14.8 km/h
Wind: WNW 14.8 km/h
Temperatur: 3°C
Gefühlt: -1°C
Taupunkt: 1°C
Luftfeuchte: 87%
Luftdruck: 1031 hPa
Bewölkt: Teilweise bewölkt
Sichtbarkeit: More than 10 km
Bewölkung: Teilweise bewölkt 1097.3 m
EDHI 171950Z AUTO 29008KT 9999 // SCT036/// 03/01 Q1031
EDDK - Köln-Bonn
Aktualisierung: 17.01.2022 8:50
Stark bewölkt  
Stark bewölkt  
   Wind: NW 14.8 km/h
Wind: NW 14.8 km/h
Temperatur: 7°C
Gefühlt: 4°C
Taupunkt: 6°C
Luftfeuchte: 93%
Luftdruck: 1036 hPa
Bewölkt: Stark bewölkt
Sichtbarkeit: More than 10 km
Bewölkung: Stark bewölkt 426.7 m
EDDK 171950Z 32008KT 9999 BKN014 07/06 Q1036 TEMPO SCT010

Script entwickelt von  Saratoga-weather.org Angepasst für das Template von  Weerstation Leuven

Sie finden die Wetterinfo auch auf:

Wetternetzwerk Deutschland

European Weather Network

Weather Underground

Regionalwetter-SA

wetter.com

wxforum.de

Genutzte Hardware, Software und WEB Anbieter:

Wetterstation
Ventus W928-Ultimate

Wetterprogramm
Weather Display

WetterComputer
RaspberryPI

Anbieter

Ventus W928-Ultimate

Weather Display

RaspberryPI